createdAt,value
2023-11-12T00:02:52.977Z,10.07
2023-11-12T00:07:56.761Z,8.55
2023-11-12T00:13:01.963Z,10.73
2023-11-12T00:18:05.652Z,8.45
2023-11-12T00:23:10.341Z,8.00
2023-11-12T00:28:15.567Z,8.52
2023-11-12T00:33:19.160Z,7.75
2023-11-12T00:38:22.794Z,9.15
2023-11-12T00:43:29.860Z,9.48
2023-11-12T00:48:34.794Z,9.18
2023-11-12T00:53:38.376Z,9.82
2023-11-12T00:58:44.326Z,8.48
2023-11-12T01:03:47.911Z,10.27
2023-11-12T01:08:51.826Z,11.35
2023-11-12T01:13:57.338Z,10.27
2023-11-12T01:19:01.330Z,10.40
2023-11-12T01:24:05.353Z,10.48
2023-11-12T01:29:10.346Z,9.90
2023-11-12T01:34:15.465Z,9.93
2023-11-12T01:39:19.196Z,9.90
2023-11-12T01:44:24.029Z,11.65
2023-11-12T01:49:27.902Z,12.93
2023-11-12T01:54:33.997Z,10.50
2023-11-12T01:59:40.256Z,9.82
2023-11-12T02:04:44.625Z,11.23
2023-11-12T02:09:53.801Z,11.93
2023-11-12T02:14:58.803Z,10.25
2023-11-12T02:20:08.132Z,9.90
2023-11-12T02:25:16.788Z,13.02
2023-11-12T02:30:20.580Z,12.98
2023-11-12T02:35:25.276Z,12.73
2023-11-12T02:40:30.403Z,11.95
2023-11-12T02:45:34.101Z,16.30
2023-11-12T02:50:38.130Z,12.93
2023-11-12T02:55:43.884Z,14.40
2023-11-12T03:00:47.534Z,13.70
2023-11-12T03:05:51.147Z,14.00
2023-11-12T03:10:57.272Z,12.82
2023-11-12T03:16:05.486Z,13.80
2023-11-12T03:21:12.400Z,11.13
2023-11-12T03:26:17.472Z,11.48
2023-11-12T03:31:21.046Z,11.40
2023-11-12T03:36:25.466Z,11.35
2023-11-12T03:41:30.384Z,12.05
2023-11-12T03:46:35.683Z,9.55
2023-11-12T03:51:39.281Z,10.70
2023-11-12T03:56:44.434Z,10.25
2023-11-12T04:01:47.911Z,8.77
2023-11-12T04:06:51.369Z,10.55
2023-11-12T04:11:56.320Z,10.32
2023-11-12T04:17:00.055Z,8.45
2023-11-12T04:22:03.670Z,9.43
2023-11-12T04:27:10.231Z,11.18
2023-11-12T04:32:13.965Z,10.48
2023-11-12T04:37:17.584Z,9.85
2023-11-12T04:42:22.787Z,7.25
2023-11-12T04:47:26.982Z,8.82
2023-11-12T04:52:30.555Z,8.82
2023-11-12T04:57:35.551Z,9.80
2023-11-12T05:02:39.118Z,10.05
2023-11-12T05:07:42.681Z,10.25
2023-11-12T05:12:48.621Z,8.73
2023-11-12T05:17:52.710Z,9.23
2023-11-12T05:22:58.505Z,9.77
2023-11-12T05:28:05.927Z,8.60
2023-11-12T05:33:10.330Z,9.63
2023-11-12T05:38:14.579Z,8.45
2023-11-12T05:43:21.585Z,8.43
2023-11-12T05:48:26.286Z,9.05
2023-11-12T05:53:30.450Z,9.02
2023-11-12T05:58:36.235Z,9.13
2023-11-12T06:03:40.426Z,8.88
2023-11-12T06:08:47.121Z,9.23
2023-11-12T06:13:52.843Z,7.30
2023-11-12T06:18:56.547Z,9.43
2023-11-12T06:24:00.282Z,8.43
2023-11-12T06:29:05.639Z,7.85
2023-11-12T06:34:09.395Z,7.68
2023-11-12T06:39:14.845Z,8.30
2023-11-12T06:44:20.018Z,7.03
2023-11-12T06:49:23.552Z,6.15
2023-11-12T06:54:27.816Z,7.15
2023-11-12T06:59:33.324Z,6.38
2023-11-12T07:04:37.051Z,7.03
2023-11-12T07:09:41.170Z,5.88
2023-11-12T07:14:46.224Z,5.40
2023-11-12T07:19:50.281Z,6.35
2023-11-12T07:24:56.920Z,6.28
2023-11-12T07:30:02.688Z,5.30
2023-11-12T07:35:10.130Z,5.65
2023-11-12T07:40:17.125Z,6.13
2023-11-12T07:45:31.441Z,5.63
2023-11-12T07:50:39.507Z,6.07
2023-11-12T07:55:43.749Z,5.35
2023-11-12T08:00:49.156Z,5.13
2023-11-12T08:05:52.880Z,7.18
2023-11-12T08:10:56.560Z,5.75
2023-11-12T08:16:01.596Z,5.95
2023-11-12T08:21:06.898Z,5.82
2023-11-12T08:26:10.528Z,4.95
2023-11-12T08:31:17.211Z,3.90
2023-11-12T08:36:21.104Z,5.43
2023-11-12T08:41:25.078Z,6.03
2023-11-12T08:46:31.271Z,5.50
2023-11-12T08:51:35.649Z,5.35
2023-11-12T08:56:39.474Z,5.68
2023-11-12T09:01:45.262Z,5.30
2023-11-12T09:06:49.302Z,4.45
2023-11-12T09:11:53.340Z,5.28
2023-11-12T09:16:59.531Z,4.43
2023-11-12T09:22:03.176Z,4.65
2023-11-12T09:27:07.752Z,5.05
2023-11-12T09:32:13.176Z,5.15
2023-11-12T09:37:17.705Z,4.47
2023-11-12T09:42:28.675Z,4.28
2023-11-12T09:47:41.778Z,4.28
2023-11-12T09:52:48.533Z,4.70
2023-11-12T09:57:53.173Z,5.00
2023-11-12T10:02:59.075Z,4.72
2023-11-12T10:08:03.025Z,4.35
2023-11-12T10:13:09.263Z,3.90
2023-11-12T10:18:14.228Z,4.97
2023-11-12T10:28:36.807Z,3.72
2023-11-12T10:33:43.352Z,4.10
2023-11-12T10:38:51.834Z,4.25
2023-11-12T10:44:00.044Z,4.22
2023-11-12T10:49:08.533Z,4.15
2023-11-12T10:54:15.295Z,4.10
2023-11-12T10:59:20.326Z,3.72
2023-11-12T11:04:26.115Z,3.17
2023-11-12T11:09:31.332Z,4.28
2023-11-12T11:14:38.152Z,4.70
2023-11-12T11:19:58.432Z,4.55
2023-11-12T11:25:23.534Z,5.05
2023-11-12T11:30:28.251Z,4.43
2023-11-12T11:35:35.827Z,4.82
2023-11-12T11:40:41.139Z,4.82
2023-11-12T11:46:08.743Z,4.05
2023-11-12T11:51:49.641Z,5.03
2023-11-12T11:56:55.328Z,3.80
2023-11-12T12:02:01.704Z,4.55
2023-11-12T12:07:05.834Z,5.22
2023-11-12T12:12:11.192Z,4.75
2023-11-12T12:17:14.904Z,4.03
2023-11-12T12:22:25.896Z,3.42
2023-11-12T12:32:39.327Z,3.88
2023-11-12T12:37:44.252Z,2.80
2023-11-12T12:42:57.391Z,4.20
2023-11-12T12:48:02.054Z,3.67
2023-11-12T12:53:16.277Z,4.55
2023-11-12T12:58:24.911Z,3.58
2023-11-12T13:03:32.445Z,3.50
2023-11-12T13:08:36.270Z,3.97
2023-11-12T13:13:42.309Z,3.78
2023-11-12T13:18:46.072Z,3.90
2023-11-12T13:23:50.535Z,4.10
2023-11-12T13:28:57.414Z,4.43
2023-11-12T13:34:02.568Z,3.88
2023-11-12T13:39:07.780Z,3.75
2023-11-12T13:44:15.393Z,3.90
2023-11-12T13:49:21.113Z,3.50
2023-11-12T13:54:25.385Z,3.97
2023-11-12T13:59:30.303Z,3.20
2023-11-12T14:04:35.083Z,4.22
2023-11-12T14:09:40.034Z,4.90
2023-11-12T14:14:47.635Z,6.20
2023-11-12T14:19:51.388Z,4.30
2023-11-12T14:24:58.068Z,3.65
2023-11-12T14:30:08.199Z,5.28
2023-11-12T14:35:13.178Z,4.18
2023-11-12T14:40:17.962Z,4.63
2023-11-12T14:45:30.685Z,4.93
2023-11-12T14:50:36.050Z,4.95
2023-11-12T14:55:40.623Z,5.32
2023-11-12T15:00:45.715Z,5.60
2023-11-12T15:05:49.338Z,5.32
2023-11-12T15:10:53.277Z,6.10
2023-11-12T15:15:58.344Z,6.00
2023-11-12T15:21:04.980Z,5.75
2023-11-12T15:26:15.245Z,7.70
2023-11-12T15:31:21.300Z,5.60
2023-11-12T15:36:25.560Z,7.43
2023-11-12T15:41:29.497Z,7.90
2023-11-12T15:46:35.411Z,7.93
2023-11-12T15:51:39.545Z,7.90
2023-11-12T15:56:43.977Z,7.63
2023-11-12T16:01:50.535Z,8.82
2023-11-12T16:06:55.550Z,10.20
2023-11-12T16:11:59.420Z,9.65
2023-11-12T16:17:04.912Z,9.63
2023-11-12T16:22:09.111Z,8.90
2023-11-12T16:27:12.796Z,8.07
2023-11-12T16:32:21.507Z,10.18
2023-11-12T16:37:26.248Z,10.15
2023-11-12T16:42:31.348Z,7.97
2023-11-12T16:47:36.700Z,11.18
2023-11-12T16:52:40.767Z,9.90
2023-11-12T16:57:45.079Z,9.60
2023-11-12T17:02:51.415Z,10.95
2023-11-12T17:07:55.888Z,11.57
2023-11-12T17:12:59.803Z,11.60
2023-11-12T17:18:04.989Z,12.20
2023-11-12T17:23:09.163Z,12.40
2023-11-12T17:28:13.205Z,11.40
2023-11-12T17:33:19.986Z,11.38
2023-11-12T17:38:28.708Z,11.43
2023-11-12T17:43:33.814Z,11.48
2023-11-12T17:48:40.620Z,11.25
2023-11-12T17:53:45.679Z,12.98
2023-11-12T17:58:50.414Z,11.43
2023-11-12T18:03:57.979Z,11.82
2023-11-12T18:09:02.027Z,11.00
2023-11-12T18:14:06.635Z,8.50
2023-11-12T18:19:15.995Z,11.65
2023-11-12T18:24:23.113Z,10.35
2023-11-12T18:29:27.009Z,8.90
2023-11-12T18:34:31.185Z,9.27
2023-11-12T18:39:36.620Z,8.15
2023-11-12T18:44:40.349Z,7.65
2023-11-12T18:49:44.584Z,5.80
2023-11-12T18:54:49.775Z,5.65
2023-11-12T18:59:53.924Z,5.45
2023-11-12T19:04:57.885Z,4.63
2023-11-12T19:10:03.687Z,3.65
2023-11-12T19:15:09.969Z,3.55
2023-11-12T19:20:15.502Z,3.47
2023-11-12T19:25:20.556Z,2.70
2023-11-12T19:30:28.130Z,2.65
2023-11-12T19:35:32.898Z,2.13
2023-11-12T19:40:37.924Z,2.20
2023-11-12T19:45:42.004Z,2.10
2023-11-12T19:50:46.177Z,2.33
2023-11-12T19:55:54.245Z,2.28
2023-11-12T20:00:58.731Z,2.30
2023-11-12T20:06:03.040Z,2.25
2023-11-12T20:11:08.269Z,2.45
2023-11-12T20:16:12.865Z,2.75
2023-11-12T20:21:16.558Z,3.22
2023-11-12T20:26:21.834Z,3.05
2023-11-12T20:31:25.791Z,3.40
2023-11-12T20:36:29.295Z,3.40
2023-11-12T20:41:34.772Z,3.70
2023-11-12T20:46:38.362Z,3.42
2023-11-12T20:51:41.994Z,3.55
2023-11-12T20:56:46.965Z,3.38
2023-11-12T21:01:50.863Z,4.03
2023-11-12T21:06:54.736Z,3.92
2023-11-12T21:12:07.304Z,3.35
2023-11-12T21:17:11.651Z,3.28
2023-11-12T21:22:15.538Z,2.78
2023-11-12T21:27:20.898Z,2.55
2023-11-12T21:32:24.518Z,2.75
2023-11-12T21:37:28.413Z,2.60
2023-11-12T21:42:33.448Z,3.17
2023-11-12T21:47:37.093Z,3.25
2023-11-12T21:52:41.907Z,3.30
2023-11-12T21:57:46.917Z,3.53
2023-11-12T22:02:51.024Z,3.33
2023-11-12T22:07:54.869Z,3.40
2023-11-12T22:13:00.887Z,3.58
2023-11-12T22:18:05.611Z,3.60
2023-11-12T22:23:12.240Z,3.22
2023-11-12T22:28:18.148Z,3.10
2023-11-12T22:33:22.005Z,1.58
2023-11-12T22:38:25.727Z,1.45
2023-11-12T22:43:30.831Z,1.00
2023-11-12T22:48:34.723Z,0.90
2023-11-12T22:53:39.092Z,0.82
2023-11-12T22:58:44.024Z,0.80
2023-11-12T23:03:48.225Z,0.80
2023-11-12T23:08:51.976Z,0.68
2023-11-12T23:13:56.985Z,0.73
2023-11-12T23:19:00.728Z,0.40
2023-11-12T23:24:04.564Z,0.47
2023-11-12T23:29:09.740Z,0.38
2023-11-12T23:34:13.420Z,0.50
2023-11-12T23:39:17.438Z,0.43
2023-11-12T23:44:23.131Z,0.47
2023-11-12T23:49:26.741Z,0.20
2023-11-12T23:54:30.459Z,0.20
2023-11-12T23:59:35.808Z,0.40
